KAPA/APA METAR and TAF weather

Enter ICAO airport designator
Station Type Date Time Source
KAPA METAR 2018/10/19 15:53 UTC NOAA

KAPA 191553Z 32004KT 10SM FEW090 13/M03 A3037 RMK AO2 SLP257 T01331028


Station Type Date Time Source
KAPA Decoded METAR 2018/10/19 15:53 UTC NOAA

DENVER CENTENNIAL AIRPORT, CO, United States (KAPA) 39-34N 104-51W 1775M
Oct 19, 2018 - 11:53 AM EDT / 2018.10.19 1553 UTC
Wind: from the NW (320 degrees) at 5 MPH (4 KT):0
Visibility: 10 mile(s):0
Sky conditions: mostly clear
Temperature: 55.9 F (13.3 C)
Dew Point: 27.0 F (-2.8 C)
Relative Humidity: 32%
Pressure (altimeter): 30.37 in. Hg (1028 hPa)
ob: KAPA 191553Z 32004KT 10SM FEW090 13/M03 A3037 RMK AO2 SLP257 T01331028
cycle: 16

Station Type Date Time Source
KAPA TAF 2018/10/19 12:36 UTC NOAA

TAF
AMD KAPA 191134Z 1912/2012 25007KT P6SM FEW120
FM191600 28010KT P6SM SKC
FM191800 01011KT P6SM FEW090 FEW250
FM192200 04008KT P6SM SKC
FM200300 16008KT P6SM SKC


Example: see airport list